createdAt,value
2023-05-08T00:02:24.457Z,26.02
2023-05-08T00:04:51.534Z,27.60
2023-05-08T00:07:18.309Z,26.83
2023-05-08T00:09:45.152Z,28.33
2023-05-08T00:12:13.191Z,27.63
2023-05-08T00:14:40.079Z,28.38
2023-05-08T00:17:06.977Z,28.95
2023-05-08T00:19:35.136Z,26.20
2023-05-08T00:22:02.021Z,26.33
2023-05-08T00:24:29.022Z,26.55
2023-05-08T00:26:56.397Z,24.98
2023-05-08T00:29:23.184Z,26.00
2023-05-08T00:31:52.712Z,27.83
2023-05-08T00:34:19.676Z,28.85
2023-05-08T00:36:46.970Z,26.73
2023-05-08T00:39:13.859Z,28.63
2023-05-08T00:41:41.010Z,27.35
2023-05-08T00:44:09.438Z,25.73
2023-05-08T00:46:36.936Z,24.80
2023-05-08T00:49:05.202Z,28.05
2023-05-08T00:51:34.255Z,26.55
2023-05-08T00:54:01.312Z,28.23
2023-05-08T00:56:29.825Z,27.95
2023-05-08T00:58:58.651Z,27.50
2023-05-08T01:01:25.650Z,26.88
2023-05-08T01:03:53.241Z,27.40
2023-05-08T01:06:20.545Z,26.65
2023-05-08T01:08:50.786Z,27.17
2023-05-08T01:11:22.151Z,27.05
2023-05-08T01:13:55.512Z,25.42
2023-05-08T01:16:47.191Z,28.23
2023-05-08T01:19:55.133Z,27.08
2023-05-08T01:22:46.476Z,26.77
2023-05-08T01:25:50.807Z,28.58
2023-05-08T01:28:57.360Z,27.48
2023-05-08T01:31:56.278Z,27.33
2023-05-08T01:34:26.833Z,26.67
2023-05-08T01:37:01.462Z,27.98
2023-05-08T01:40:02.969Z,31.02
2023-05-08T01:42:46.549Z,29.77
2023-05-08T01:45:30.502Z,34.95
2023-05-08T01:48:35.556Z,31.52
2023-05-08T01:51:12.195Z,34.45
2023-05-08T01:53:44.225Z,31.67
2023-05-08T01:56:22.332Z,33.42
2023-05-08T01:58:52.072Z,31.10
2023-05-08T02:01:25.697Z,31.23
2023-05-08T02:03:54.683Z,29.70
2023-05-08T02:06:22.871Z,30.70
2023-05-08T02:08:51.908Z,31.40
2023-05-08T02:11:20.431Z,30.05
2023-05-08T02:13:49.468Z,30.08
2023-05-08T02:16:19.164Z,31.02
2023-05-08T02:18:56.551Z,29.85
2023-05-08T02:21:24.464Z,28.02
2023-05-08T02:23:52.321Z,29.90
2023-05-08T02:26:21.770Z,30.80
2023-05-08T02:28:53.331Z,31.48
2023-05-08T02:31:21.574Z,29.75
2023-05-08T02:33:49.426Z,30.83
2023-05-08T02:36:18.576Z,32.55
2023-05-08T02:38:51.143Z,32.47
2023-05-08T02:41:22.375Z,30.50
2023-05-08T02:43:52.174Z,31.45
2023-05-08T02:46:22.760Z,33.03
2023-05-08T02:48:58.656Z,34.22
2023-05-08T02:51:35.110Z,30.75
2023-05-08T02:54:18.219Z,31.35
2023-05-08T02:56:55.956Z,30.65
2023-05-08T03:02:03.252Z,31.63
2023-05-08T03:04:53.504Z,31.00
2023-05-08T03:07:23.299Z,32.13
2023-05-08T03:09:56.800Z,34.03
2023-05-08T03:12:26.887Z,29.80
2023-05-08T03:15:02.089Z,33.10
2023-05-08T03:17:32.693Z,34.20
2023-05-08T03:20:03.809Z,33.40
2023-05-08T03:22:32.650Z,32.63
2023-05-08T03:25:02.979Z,31.48
2023-05-08T03:27:30.787Z,31.58
2023-05-08T03:29:59.764Z,33.10
2023-05-08T03:32:28.478Z,31.65
2023-05-08T03:34:58.859Z,30.90
2023-05-08T03:37:28.422Z,32.13
2023-05-08T03:39:58.485Z,29.85
2023-05-08T03:42:27.419Z,31.77
2023-05-08T03:44:54.602Z,32.63
2023-05-08T03:47:22.894Z,29.70
2023-05-08T03:49:50.690Z,27.92
2023-05-08T03:52:18.442Z,28.33
2023-05-08T03:54:45.826Z,26.10
2023-05-08T03:57:13.760Z,25.00
2023-05-08T04:00:15.052Z,25.00
2023-05-08T04:02:56.405Z,24.23
2023-05-08T04:05:34.855Z,25.98
2023-05-08T04:08:11.073Z,25.08
2023-05-08T04:10:44.716Z,25.23
2023-05-08T04:13:19.086Z,24.80
2023-05-08T04:16:00.963Z,24.38
2023-05-08T04:18:34.779Z,22.40
2023-05-08T04:21:06.713Z,22.70
2023-05-08T04:23:35.489Z,22.23
2023-05-08T04:26:05.550Z,21.80
2023-05-08T04:28:33.825Z,21.73
2023-05-08T04:31:02.766Z,24.05
2023-05-08T04:33:30.313Z,22.23
2023-05-08T04:36:01.220Z,24.17
2023-05-08T04:38:28.449Z,23.70
2023-05-08T04:40:55.586Z,23.83
2023-05-08T04:43:25.747Z,24.60
2023-05-08T04:45:53.039Z,24.00
2023-05-08T04:48:20.137Z,23.17
2023-05-08T04:50:46.965Z,24.05
2023-05-08T04:53:15.667Z,23.80
2023-05-08T04:55:42.595Z,21.83
2023-05-08T04:58:12.898Z,24.05
2023-05-08T05:00:39.589Z,23.20
2023-05-08T05:03:06.477Z,25.13
2023-05-08T05:05:37.655Z,23.35
2023-05-08T05:08:06.173Z,24.95
2023-05-08T05:10:33.113Z,25.70
2023-05-08T05:13:01.258Z,25.15
2023-05-08T05:15:28.408Z,25.52
2023-05-08T05:17:55.585Z,26.35
2023-05-08T05:20:22.775Z,28.98
2023-05-08T05:22:49.688Z,29.75
2023-05-08T05:25:17.237Z,27.92
2023-05-08T05:27:44.859Z,31.38
2023-05-08T05:30:12.659Z,28.77
2023-05-08T05:32:40.020Z,29.65
2023-05-08T05:35:08.401Z,31.70
2023-05-08T05:37:35.960Z,28.85
2023-05-08T05:40:03.352Z,27.75
2023-05-08T05:42:32.505Z,30.48
2023-05-08T05:44:59.418Z,27.98
2023-05-08T05:47:27.110Z,27.45
2023-05-08T05:49:54.322Z,27.10
2023-05-08T05:52:22.228Z,28.67
2023-05-08T05:54:49.222Z,25.60
2023-05-08T05:57:16.048Z,28.13
2023-05-08T05:59:43.598Z,25.90
2023-05-08T06:02:14.620Z,28.80
2023-05-08T06:04:41.429Z,26.95
2023-05-08T06:07:08.650Z,29.15
2023-05-08T06:09:39.295Z,29.67
2023-05-08T06:12:06.334Z,29.48
2023-05-08T06:14:35.379Z,28.58
2023-05-08T06:17:02.137Z,28.83
2023-05-08T06:19:29.425Z,28.70
2023-05-08T06:21:56.332Z,29.73
2023-05-08T06:24:22.962Z,29.98
2023-05-08T06:26:49.682Z,32.65
2023-05-08T06:29:16.319Z,29.73
2023-05-08T06:31:43.068Z,34.42
2023-05-08T06:34:09.704Z,36.40
2023-05-08T06:36:36.758Z,36.58
2023-05-08T06:39:07.517Z,38.72
2023-05-08T06:41:34.179Z,37.33
2023-05-08T06:44:00.911Z,37.90
2023-05-08T06:46:27.954Z,36.17
2023-05-08T06:48:54.760Z,36.58
2023-05-08T06:51:23.321Z,36.60
2023-05-08T06:53:50.128Z,36.65
2023-05-08T06:56:16.838Z,38.50
2023-05-08T06:58:46.497Z,37.72
2023-05-08T07:01:20.519Z,35.90
2023-05-08T07:03:47.368Z,36.65
2023-05-08T07:06:14.095Z,37.50
2023-05-08T07:08:40.840Z,38.03
2023-05-08T07:11:10.154Z,37.63
2023-05-08T07:13:37.246Z,40.53
2023-05-08T07:16:11.670Z,37.75
2023-05-08T07:18:38.592Z,37.47
2023-05-08T07:21:05.310Z,38.08
2023-05-08T07:23:32.140Z,36.58
2023-05-08T07:25:59.505Z,37.78
2023-05-08T07:28:27.033Z,37.38
2023-05-08T07:30:53.794Z,37.88
2023-05-08T07:33:21.029Z,39.33
2023-05-08T07:35:47.678Z,36.70
2023-05-08T07:38:14.403Z,36.75
2023-05-08T07:40:42.707Z,35.40
2023-05-08T07:43:09.822Z,34.97
2023-05-08T07:45:36.868Z,35.35
2023-05-08T07:48:03.775Z,34.42
2023-05-08T07:50:30.571Z,31.13
2023-05-08T07:52:57.280Z,31.52
2023-05-08T07:55:24.142Z,31.98
2023-05-08T07:57:51.086Z,32.75
2023-05-08T08:00:18.286Z,36.38
2023-05-08T08:02:46.014Z,39.13
2023-05-08T08:05:13.289Z,40.63
2023-05-08T08:07:40.307Z,43.72
2023-05-08T08:10:08.034Z,45.40
2023-05-08T08:12:34.885Z,47.25
2023-05-08T08:15:01.810Z,42.03
2023-05-08T08:17:29.158Z,41.13
2023-05-08T08:19:56.914Z,39.58
2023-05-08T08:22:24.519Z,31.60
2023-05-08T08:24:54.097Z,27.83
2023-05-08T08:27:21.979Z,26.52
2023-05-08T08:29:48.951Z,23.48
2023-05-08T08:32:15.972Z,24.73
2023-05-08T08:34:42.874Z,21.95
2023-05-08T08:37:09.726Z,23.55
2023-05-08T08:39:36.575Z,23.75
2023-05-08T08:42:04.292Z,29.67
2023-05-08T08:44:31.010Z,26.35
2023-05-08T08:47:00.648Z,24.23
2023-05-08T08:49:41.418Z,25.17
2023-05-08T08:52:31.841Z,28.65
2023-05-08T08:55:17.901Z,25.50
2023-05-08T08:58:47.974Z,14.15
2023-05-08T09:01:17.927Z,16.23
2023-05-08T09:03:46.093Z,17.73
2023-05-08T09:06:14.277Z,14.43
2023-05-08T09:08:41.360Z,15.02
2023-05-08T09:11:08.252Z,16.02
2023-05-08T09:13:35.170Z,15.48
2023-05-08T09:16:02.286Z,14.90
2023-05-08T09:18:29.342Z,15.68
2023-05-08T09:20:57.251Z,14.68
2023-05-08T09:23:24.656Z,15.32
2023-05-08T09:25:51.845Z,14.90
2023-05-08T09:28:23.441Z,15.00
2023-05-08T09:30:55.738Z,14.75
2023-05-08T09:33:25.698Z,13.65
2023-05-08T09:35:52.721Z,13.48
2023-05-08T09:38:39.301Z,12.60
2023-05-08T09:41:11.680Z,14.10
2023-05-08T09:43:39.243Z,15.00
2023-05-08T09:46:35.730Z,12.50
2023-05-08T09:49:04.122Z,14.40
2023-05-08T09:51:33.331Z,13.73
2023-05-08T09:54:00.680Z,13.18
2023-05-08T09:56:34.712Z,20.48
2023-05-08T09:59:04.486Z,12.05
2023-05-08T10:01:35.012Z,10.45
2023-05-08T10:04:03.792Z,8.95
2023-05-08T10:06:30.522Z,8.57
2023-05-08T10:09:42.414Z,8.15
2023-05-08T10:12:14.467Z,7.80
2023-05-08T10:14:44.712Z,9.13
2023-05-08T10:17:16.226Z,10.10
2023-05-08T10:19:46.352Z,8.73
2023-05-08T10:22:16.160Z,8.13
2023-05-08T10:24:44.381Z,8.77
2023-05-08T10:27:20.443Z,7.55
2023-05-08T10:29:54.523Z,7.68
2023-05-08T10:32:25.026Z,9.20
2023-05-08T10:35:00.839Z,10.25
2023-05-08T10:37:31.444Z,9.13
2023-05-08T10:39:58.857Z,8.02
2023-05-08T10:42:26.683Z,8.25
2023-05-08T10:44:54.622Z,9.18
2023-05-08T10:47:45.976Z,10.88
2023-05-08T10:50:34.100Z,12.15
2023-05-08T10:53:11.880Z,10.68
2023-05-08T10:55:42.279Z,8.73
2023-05-08T10:58:28.994Z,11.50
2023-05-08T11:01:07.410Z,11.93
2023-05-08T11:03:50.726Z,12.23
2023-05-08T11:06:41.024Z,12.55
2023-05-08T11:09:08.630Z,13.45
2023-05-08T11:11:43.934Z,14.15
2023-05-08T11:14:15.260Z,13.45
2023-05-08T11:16:54.638Z,11.35
2023-05-08T11:19:23.441Z,10.27
2023-05-08T11:22:24.289Z,10.75
2023-05-08T11:25:09.325Z,9.00
2023-05-08T11:27:51.364Z,8.32
2023-05-08T11:30:18.797Z,9.05
2023-05-08T11:33:16.585Z,9.82
2023-05-08T11:35:52.378Z,9.50
2023-05-08T11:38:36.420Z,10.15
2023-05-08T11:41:24.128Z,10.50
2023-05-08T11:43:56.947Z,13.02
2023-05-08T11:46:24.173Z,11.65
2023-05-08T11:49:00.822Z,16.48
2023-05-08T11:51:32.665Z,12.35
2023-05-08T11:54:03.573Z,11.27
2023-05-08T11:56:31.516Z,12.32
2023-05-08T11:59:06.192Z,11.32
2023-05-08T12:01:33.197Z,11.25
2023-05-08T12:04:04.484Z,10.73
2023-05-08T12:06:32.648Z,10.77
2023-05-08T12:09:05.044Z,11.40
2023-05-08T12:11:32.478Z,10.68
2023-05-08T12:13:59.325Z,9.60
2023-05-08T12:16:26.397Z,10.73
2023-05-08T12:18:56.201Z,9.70
2023-05-08T12:21:23.354Z,10.18
2023-05-08T12:23:51.099Z,9.57
2023-05-08T12:26:24.328Z,10.95
2023-05-08T12:28:57.371Z,9.45
2023-05-08T12:31:24.432Z,8.13
2023-05-08T12:33:52.490Z,8.05
2023-05-08T12:36:19.604Z,8.32
2023-05-08T12:38:46.737Z,7.90
2023-05-08T12:41:13.974Z,8.77
2023-05-08T12:43:40.746Z,8.68
2023-05-08T12:46:11.762Z,8.95
2023-05-08T12:48:38.603Z,8.50
2023-05-08T12:51:05.722Z,7.97
2023-05-08T12:53:33.638Z,7.78
2023-05-08T12:56:03.850Z,7.75
2023-05-08T12:58:35.983Z,7.22
2023-05-08T13:01:15.705Z,8.50
2023-05-08T13:03:43.010Z,7.85
2023-05-08T13:06:21.300Z,8.93
2023-05-08T13:08:53.984Z,8.85
2023-05-08T13:11:33.299Z,8.85
2023-05-08T13:14:00.481Z,9.52
2023-05-08T13:16:27.610Z,10.13
2023-05-08T13:18:54.621Z,11.13
2023-05-08T13:21:21.462Z,10.52
2023-05-08T13:23:48.375Z,11.65
2023-05-08T13:26:19.326Z,10.68
2023-05-08T13:28:47.263Z,11.23
2023-05-08T13:31:14.292Z,11.43
2023-05-08T13:33:42.446Z,11.18
2023-05-08T13:36:09.385Z,12.48
2023-05-08T13:38:36.447Z,12.20
2023-05-08T13:41:03.777Z,12.90
2023-05-08T13:43:31.222Z,12.75
2023-05-08T13:45:58.635Z,13.38
2023-05-08T13:48:25.336Z,12.98
2023-05-08T13:50:52.352Z,13.45
2023-05-08T13:53:19.478Z,13.98
2023-05-08T13:55:46.398Z,14.60
2023-05-08T13:58:13.115Z,13.90
2023-05-08T14:00:40.153Z,14.63
2023-05-08T14:03:07.400Z,16.60
2023-05-08T14:05:35.363Z,15.90
2023-05-08T14:08:02.114Z,17.52
2023-05-08T14:10:29.052Z,19.30
2023-05-08T14:12:56.025Z,16.95
2023-05-08T14:15:26.905Z,17.20
2023-05-08T14:18:00.190Z,19.20
2023-05-08T14:20:29.133Z,18.08
2023-05-08T14:22:59.741Z,17.17
2023-05-08T14:25:27.108Z,17.17
2023-05-08T14:27:55.164Z,19.33
2023-05-08T14:30:22.116Z,18.63
2023-05-08T14:32:49.170Z,17.02
2023-05-08T14:35:16.462Z,15.90
2023-05-08T14:37:43.339Z,14.20
2023-05-08T14:40:10.199Z,14.70
2023-05-08T14:42:38.673Z,14.38
2023-05-08T14:45:06.107Z,13.98
2023-05-08T14:47:33.939Z,14.50
2023-05-08T14:50:00.967Z,14.43
2023-05-08T14:52:27.712Z,14.98
2023-05-08T14:54:54.953Z,13.55
2023-05-08T14:57:22.340Z,15.38
2023-05-08T14:59:55.005Z,15.32
2023-05-08T15:02:23.491Z,15.20
2023-05-08T15:04:50.561Z,14.18
2023-05-08T15:07:17.173Z,15.18
2023-05-08T15:09:44.040Z,14.18
2023-05-08T15:12:10.764Z,14.63
2023-05-08T15:14:37.643Z,13.40
2023-05-08T15:17:04.530Z,13.05
2023-05-08T15:19:31.652Z,12.95
2023-05-08T15:21:58.319Z,12.20
2023-05-08T15:24:25.151Z,13.32
2023-05-08T15:26:51.893Z,11.13
2023-05-08T15:29:19.966Z,12.27
2023-05-08T15:31:46.910Z,11.80
2023-05-08T15:34:15.177Z,12.57
2023-05-08T15:36:43.251Z,11.45
2023-05-08T15:39:10.155Z,10.40
2023-05-08T15:41:37.815Z,12.82
2023-05-08T15:44:04.599Z,11.43
2023-05-08T15:46:31.605Z,12.07
2023-05-08T15:49:00.625Z,12.50
2023-05-08T15:51:29.645Z,12.77
2023-05-08T15:53:56.586Z,11.43
2023-05-08T15:56:25.819Z,12.10
2023-05-08T15:58:53.212Z,12.77
2023-05-08T16:01:20.924Z,12.57
2023-05-08T16:03:47.758Z,12.30
2023-05-08T16:06:14.504Z,13.07
2023-05-08T16:08:41.506Z,13.45
2023-05-08T16:11:08.418Z,12.07
2023-05-08T16:13:35.210Z,11.27
2023-05-08T16:16:06.591Z,11.75
2023-05-08T16:18:33.699Z,10.93
2023-05-08T16:21:00.428Z,9.65
2023-05-08T16:23:27.513Z,11.25
2023-05-08T16:25:54.613Z,13.45
2023-05-08T16:28:21.428Z,14.20
2023-05-08T16:30:48.191Z,14.30
2023-05-08T16:33:15.166Z,14.07
2023-05-08T16:35:42.091Z,14.48
2023-05-08T16:38:10.353Z,14.95
2023-05-08T16:40:37.118Z,15.38
2023-05-08T16:43:03.990Z,15.23
2023-05-08T16:45:31.111Z,14.98
2023-05-08T16:47:57.881Z,15.82
2023-05-08T16:50:24.833Z,15.60
2023-05-08T16:52:54.386Z,14.30
2023-05-08T16:55:21.173Z,16.42
2023-05-08T16:57:47.827Z,16.38
2023-05-08T17:00:15.046Z,15.30
2023-05-08T17:02:42.831Z,13.13
2023-05-08T17:05:09.829Z,14.23
2023-05-08T17:07:36.646Z,14.55
2023-05-08T17:10:03.957Z,14.65
2023-05-08T17:12:30.949Z,15.57
2023-05-08T17:14:57.650Z,14.65
2023-05-08T17:17:24.340Z,15.43
2023-05-08T17:19:51.513Z,16.75
2023-05-08T17:22:20.774Z,16.33
2023-05-08T17:24:47.557Z,17.33
2023-05-08T17:27:14.271Z,16.50
2023-05-08T17:29:41.029Z,16.35
2023-05-08T17:32:08.228Z,15.82
2023-05-08T17:34:35.103Z,15.75
2023-05-08T17:37:02.059Z,14.75
2023-05-08T17:39:29.035Z,14.80
2023-05-08T17:41:56.859Z,12.27
2023-05-08T17:44:23.662Z,7.68
2023-05-08T17:46:51.742Z,7.05
2023-05-08T17:49:19.400Z,5.40
2023-05-08T17:51:46.831Z,5.20
2023-05-08T17:54:13.564Z,5.95
2023-05-08T17:56:41.521Z,5.55
2023-05-08T17:59:08.550Z,5.68
2023-05-08T18:01:35.359Z,4.90
2023-05-08T18:04:02.986Z,5.57
2023-05-08T18:06:29.668Z,4.82
2023-05-08T18:08:56.416Z,4.75
2023-05-08T18:11:26.544Z,4.90
2023-05-08T18:13:54.935Z,4.65
2023-05-08T18:16:22.564Z,3.88
2023-05-08T18:18:50.664Z,3.40
2023-05-08T18:21:17.875Z,3.50
2023-05-08T18:23:44.748Z,4.18
2023-05-08T18:26:15.652Z,3.90
2023-05-08T18:28:42.637Z,4.35
2023-05-08T18:31:09.979Z,3.25
2023-05-08T18:33:44.102Z,3.85
2023-05-08T18:36:11.058Z,4.53
2023-05-08T18:38:38.111Z,4.60
2023-05-08T18:41:06.336Z,4.78
2023-05-08T18:43:33.564Z,4.93
2023-05-08T18:46:00.867Z,4.50
2023-05-08T18:48:27.843Z,4.40
2023-05-08T18:50:58.649Z,5.43
2023-05-08T18:53:25.734Z,5.28
2023-05-08T18:56:02.699Z,5.05
2023-05-08T18:58:29.469Z,5.18
2023-05-08T19:00:59.309Z,5.25
2023-05-08T19:03:26.530Z,4.75
2023-05-08T19:05:54.840Z,5.10
2023-05-08T19:08:21.694Z,5.35
2023-05-08T19:10:48.587Z,5.07
2023-05-08T19:13:16.504Z,5.20
2023-05-08T19:15:43.260Z,4.78
2023-05-08T19:18:10.581Z,4.75
2023-05-08T19:20:37.508Z,5.50
2023-05-08T19:23:04.337Z,4.13
2023-05-08T19:25:31.503Z,4.85
2023-05-08T19:27:59.249Z,4.55
2023-05-08T19:30:27.550Z,4.90
2023-05-08T19:32:54.558Z,4.78
2023-05-08T19:35:21.426Z,4.80
2023-05-08T19:37:48.203Z,4.28
2023-05-08T19:40:16.497Z,4.15
2023-05-08T19:42:46.481Z,4.05
2023-05-08T19:45:13.516Z,4.75
2023-05-08T19:47:40.314Z,3.72
2023-05-08T19:50:22.091Z,3.60
2023-05-08T19:52:49.207Z,3.35
2023-05-08T19:55:17.029Z,3.55
2023-05-08T19:57:44.342Z,3.35
2023-05-08T20:00:17.306Z,3.65
2023-05-08T20:02:44.187Z,3.30
2023-05-08T20:07:42.700Z,3.28
2023-05-08T20:10:09.684Z,3.60
2023-05-08T20:12:36.897Z,3.22
2023-05-08T20:15:04.006Z,3.22
2023-05-08T20:17:30.812Z,3.28
2023-05-08T20:20:01.860Z,3.10
2023-05-08T20:22:28.621Z,3.20
2023-05-08T20:24:55.896Z,3.03
2023-05-08T20:27:23.415Z,2.60
2023-05-08T20:29:50.713Z,2.35
2023-05-08T20:32:23.506Z,3.10
2023-05-08T20:34:51.455Z,2.70
2023-05-08T20:37:18.642Z,2.70
2023-05-08T20:39:45.798Z,2.83
2023-05-08T20:42:12.818Z,2.45
2023-05-08T20:44:40.413Z,2.50
2023-05-08T20:47:07.294Z,2.22
2023-05-08T20:49:34.182Z,1.95
2023-05-08T20:52:01.213Z,2.15
2023-05-08T20:54:30.947Z,2.80
2023-05-08T20:56:58.044Z,2.35
2023-05-08T20:59:25.191Z,2.50
2023-05-08T21:01:52.334Z,2.30
2023-05-08T21:04:19.475Z,1.85
2023-05-08T21:06:46.415Z,2.40
2023-05-08T21:09:13.783Z,2.17
2023-05-08T21:11:40.740Z,2.50
2023-05-08T21:14:07.786Z,2.88
2023-05-08T21:16:36.524Z,2.75
2023-05-08T21:19:03.472Z,2.83
2023-05-08T21:21:30.141Z,2.60
2023-05-08T21:23:57.264Z,2.88
2023-05-08T21:26:27.509Z,3.20
2023-05-08T21:28:55.017Z,3.50
2023-05-08T21:31:22.762Z,3.80
2023-05-08T21:33:49.803Z,3.85
2023-05-08T21:36:16.887Z,4.03
2023-05-08T21:38:43.940Z,4.60
2023-05-08T21:41:11.347Z,4.32
2023-05-08T21:43:38.922Z,6.05
2023-05-08T21:46:07.396Z,5.30
2023-05-08T21:48:37.225Z,5.65
2023-05-08T21:51:04.850Z,4.75
2023-05-08T21:53:31.882Z,4.53
2023-05-08T21:56:00.046Z,4.63
2023-05-08T21:58:26.779Z,4.13
2023-05-08T22:00:53.784Z,4.50
2023-05-08T22:03:21.108Z,3.90
2023-05-08T22:05:48.141Z,3.55
2023-05-08T22:08:15.170Z,3.17
2023-05-08T22:10:44.290Z,3.10
2023-05-08T22:13:12.364Z,2.90
2023-05-08T22:15:39.149Z,3.50
2023-05-08T22:18:12.010Z,3.92
2023-05-08T22:20:38.725Z,3.30
2023-05-08T22:23:05.979Z,3.92
2023-05-08T22:25:35.189Z,3.33
2023-05-08T22:28:02.430Z,4.78
2023-05-08T22:30:30.122Z,3.50
2023-05-08T22:32:58.095Z,3.47
2023-05-08T22:35:26.894Z,3.80
2023-05-08T22:37:54.142Z,3.95
2023-05-08T22:40:21.987Z,3.97
2023-05-08T22:42:51.638Z,3.47
2023-05-08T22:45:18.849Z,2.95
2023-05-08T22:47:46.184Z,3.88
2023-05-08T22:50:13.333Z,3.47
2023-05-08T22:52:40.682Z,3.83
2023-05-08T22:55:08.077Z,3.95
2023-05-08T22:57:34.955Z,4.20
2023-05-08T23:00:11.518Z,4.30
2023-05-08T23:02:38.437Z,3.63
2023-05-08T23:05:06.932Z,4.25
2023-05-08T23:07:34.135Z,4.18
2023-05-08T23:10:01.020Z,4.75
2023-05-08T23:12:27.827Z,4.00
2023-05-08T23:14:54.961Z,4.30
2023-05-08T23:17:21.760Z,4.10
2023-05-08T23:19:48.464Z,4.32
2023-05-08T23:22:15.661Z,4.40
2023-05-08T23:24:42.498Z,4.43
2023-05-08T23:27:09.389Z,4.75
2023-05-08T23:29:36.298Z,4.38
2023-05-08T23:32:03.322Z,4.75
2023-05-08T23:34:30.280Z,4.22
2023-05-08T23:37:07.495Z,4.50
2023-05-08T23:39:41.378Z,4.85
2023-05-08T23:42:09.012Z,4.90
2023-05-08T23:44:37.028Z,5.88
2023-05-08T23:47:03.810Z,5.80
2023-05-08T23:49:30.705Z,7.53
2023-05-08T23:51:57.724Z,8.63
2023-05-08T23:54:24.719Z,6.88
2023-05-08T23:56:56.790Z,7.07
2023-05-08T23:59:23.880Z,8.02
